Time;durP1;ratioP1;P1;durP2;ratioP2;P2;SDS_P1;SDS_P2;PMS_P1;PMS_P2;Temp;Humidity;BMP_temperature;BMP_pressure;BME280_temperature;BME280_humidity;BME280_pressure;Samples;Min_cycle;Max_cycle;Signal;HPM_P1;HPM_P2
2021/09/11 00:02:10;;;;;;;8.83;7.55;;;;;;;16.71;62.10;100805.46;1754434;81;21032;-81
2021/09/11 00:04:38;;;;;;;15.32;9.10;;;;;;;16.68;62.15;100805.58;1752649;81;21001;-81
2021/09/11 00:07:04;;;;;;;17.12;8.08;;;;;;;16.68;62.18;100809.49;1739324;80;20937;-81
2021/09/11 00:09:31;;;;;;;15.83;9.28;;;;;;;16.66;62.18;100811.31;1730617;81;26151;-81
2021/09/11 00:11:57;;;;;;;14.40;8.78;;;;;;;16.65;62.28;100808.30;1757978;81;21401;-81
2021/09/11 00:14:23;;;;;;;13.88;9.45;;;;;;;16.63;62.32;100802.29;1760519;81;20920;-81
2021/09/11 00:16:50;;;;;;;21.25;8.40;;;;;;;16.62;62.33;100803.20;1760282;81;20885;-81
2021/09/11 00:19:16;;;;;;;9.70;6.97;;;;;;;16.60;62.34;100803.70;1759043;81;20971;-81
2021/09/11 00:21:42;;;;;;;10.30;7.35;;;;;;;16.57;62.38;100802.06;1760432;81;20949;-81
2021/09/11 00:24:10;;;;;;;9.48;7.80;;;;;;;16.52;62.40;100802.23;1749528;81;20917;-81
2021/09/11 00:26:38;;;;;;;12.93;8.33;;;;;;;16.49;62.46;100807.57;1712452;82;413038;-81
2021/09/11 00:29:04;;;;;;;16.25;10.68;;;;;;;16.47;62.53;100804.62;1721798;82;20848;-81
2021/09/11 00:31:33;;;;;;;12.23;8.28;;;;;;;16.44;62.59;100805.58;1722607;83;20919;-81
2021/09/11 00:33:59;;;;;;;12.80;8.23;;;;;;;16.41;62.62;100800.93;1722244;82;21428;-81
2021/09/11 00:36:25;;;;;;;10.28;8.13;;;;;;;16.39;62.67;100804.05;1704796;82;20895;-81
2021/09/11 00:38:51;;;;;;;12.00;8.50;;;;;;;16.35;62.72;100795.94;1729781;82;20871;-81
2021/09/11 00:41:18;;;;;;;15.95;8.33;;;;;;;16.33;62.76;100794.69;1762605;81;20952;-81
2021/09/11 00:43:47;;;;;;;;;;;;;;;16.31;62.79;100793.04;1765345;81;20941;-81
2021/09/11 00:46:14;;;;;;;13.43;8.35;;;;;;;16.29;63.26;100790.48;1762377;81;20118;-81
2021/09/11 00:48:40;;;;;;;12.55;7.28;;;;;;;16.27;62.88;100794.06;1754328;81;20873;-81
2021/09/11 00:51:10;;;;;;;15.55;8.93;;;;;;;16.24;62.92;100793.72;1756757;81;20877;-81
2021/09/11 00:53:37;;;;;;;14.75;8.45;;;;;;;16.22;62.95;100792.92;1768235;81;20909;-81
2021/09/11 00:56:04;;;;;;;11.45;8.45;;;;;;;16.19;62.99;100789.12;1768203;81;20905;-81
2021/09/11 00:58:31;;;;;;;13.88;8.18;;;;;;;16.14;63.05;100794.50;1767843;81;20865;-81
2021/09/11 01:00:57;;;;;;;14.40;8.20;;;;;;;16.14;63.08;100791.04;1767634;81;21422;-81
2021/09/11 01:03:23;;;;;;;15.50;8.50;;;;;;;16.11;63.10;100793.80;1764536;79;20905;-81
2021/09/11 01:05:50;;;;;;;17.45;9.20;;;;;;;16.08;63.17;100795.20;1756459;81;20959;-81
2021/09/11 01:08:16;;;;;;;10.55;8.58;;;;;;;16.04;63.20;100791.86;1767408;81;20873;-81
2021/09/11 01:10:42;;;;;;;11.53;7.90;;;;;;;16.02;63.26;100796.73;1767191;81;20971;-81
2021/09/11 01:13:11;;;;;;;9.65;8.10;;;;;;;16.01;63.30;100793.27;1764899;81;21028;-81
2021/09/11 01:15:41;;;;;;;10.68;8.33;;;;;;;15.97;63.33;100790.37;1758510;81;21647;-81
2021/09/11 01:18:09;;;;;;;12.60;8.28;;;;;;;15.96;63.39;100790.42;1738651;81;21427;-81
2021/09/11 01:20:38;;;;;;;12.33;9.35;;;;;;;15.93;63.43;100789.23;1767086;81;20952;-81
2021/09/11 01:23:04;;;;;;;9.83;8.63;;;;;;;15.92;63.51;100791.44;1767065;81;21335;-81
2021/09/11 01:25:31;;;;;;;11.10;7.83;;;;;;;15.89;63.55;100794.55;1767431;81;21421;-81
2021/09/11 01:27:59;;;;;;;17.30;9.33;;;;;;;15.87;63.58;100800.27;1767293;81;21413;-81
2021/09/11 01:30:25;;;;;;;15.78;8.65;;;;;;;15.86;63.68;100797.27;1767214;81;20956;-81
2021/09/11 01:32:52;;;;;;;9.35;8.43;;;;;;;15.85;63.66;100801.23;1766764;81;21167;-81
2021/09/11 01:35:18;;;;;;;15.50;9.00;;;;;;;15.83;63.71;100797.38;1771151;79;20889;-81
2021/09/11 01:37:45;;;;;;;13.30;9.30;;;;;;;15.80;63.80;100803.14;1767397;81;21405;-81
2021/09/11 01:40:12;;;;;;;15.10;9.98;;;;;;;15.78;63.86;100799.28;1765101;81;20991;-81
2021/09/11 01:42:39;;;;;;;10.95;9.08;;;;;;;15.77;63.90;100796.73;1766172;81;21473;-81
2021/09/11 01:45:14;;;;;;;15.08;8.75;;;;;;;15.76;63.95;100795.88;1766022;81;21472;-81
2021/09/11 01:47:42;;;;;;;10.68;8.60;;;;;;;15.77;63.99;100799.33;1765764;81;20976;-81
2021/09/11 01:50:12;;;;;;;10.60;9.13;;;;;;;15.76;64.03;100796.33;1766893;80;21365;-81
2021/09/11 01:52:39;;;;;;;10.65;8.48;;;;;;;15.77;64.08;100797.58;1767272;81;21398;-81
2021/09/11 01:55:11;;;;;;;12.30;9.38;;;;;;;15.79;64.14;100797.08;1767030;81;21437;-81
2021/09/11 01:57:44;;;;;;;11.18;9.40;;;;;;;15.80;64.19;100793.56;1767278;81;20909;-81
2021/09/11 02:00:16;;;;;;;15.93;9.25;;;;;;;15.82;64.21;100794.36;1746686;81;21476;-81
2021/09/11 02:02:43;;;;;;;10.10;9.00;;;;;;;15.81;64.26;100792.66;1749558;81;20978;-81
2021/09/11 02:05:11;;;;;;;14.87;9.20;;;;;;;15.84;64.30;100794.31;1766390;81;21631;-81
2021/09/11 02:07:38;;;;;;;10.80;9.43;;;;;;;15.84;64.36;100793.86;1765652;81;21052;-81
2021/09/11 02:10:08;;;;;;;17.92;9.58;;;;;;;15.86;64.39;100791.20;1766323;81;21526;-81
2021/09/11 02:12:35;;;;;;;12.85;9.53;;;;;;;15.89;64.44;100791.09;1765591;81;21519;-81
2021/09/11 02:15:04;;;;;;;10.15;8.55;;;;;;;15.91;64.48;100788.42;1766370;81;25862;-81
2021/09/11 02:17:30;;;;;;;11.55;9.80;;;;;;;15.93;64.51;100793.14;1767299;81;21524;-81
2021/09/11 02:19:56;;;;;;;10.50;8.60;;;;;;;15.94;64.58;100797.00;1767016;81;21008;-81
2021/09/11 02:22:23;;;;;;;28.20;10.53;;;;;;;15.95;64.62;100792.17;1765725;81;21517;-81
2021/09/11 02:24:49;;;;;;;14.03;10.82;;;;;;;15.96;64.69;100791.27;1766445;81;21424;-81
2021/09/11 02:27:15;;;;;;;9.78;8.45;;;;;;;15.98;64.71;100789.91;1766253;81;21425;-81
2021/09/11 02:29:42;;;;;;;10.63;9.10;;;;;;;15.98;64.74;100789.47;1766523;81;21496;-81
2021/09/11 02:32:08;;;;;;;9.10;8.03;;;;;;;15.98;64.75;100790.77;1766172;81;21479;-81
2021/09/11 02:34:35;;;;;;;16.23;8.65;;;;;;;15.98;64.81;100785.55;1751389;81;21464;-81
2021/09/11 02:37:01;;;;;;;12.70;9.95;;;;;;;15.98;64.87;100787.30;1766219;81;21023;-81
2021/09/11 02:39:27;;;;;;;11.57;9.75;;;;;;;15.95;64.94;100784.36;1766307;81;21618;-81
2021/09/11 02:41:55;;;;;;;13.18;9.23;;;;;;;16.00;64.98;100784.19;1766241;81;21491;-81
2021/09/11 02:44:21;;;;;;;13.68;11.03;;;;;;;16.01;65.01;100781.98;1737991;81;21008;-81
2021/09/11 02:46:48;;;;;;;13.75;10.20;;;;;;;16.04;65.06;100787.09;1765831;81;20964;-81
2021/09/11 02:49:14;;;;;;;13.05;10.32;;;;;;;16.05;65.12;100780.97;1765957;81;21047;-81
2021/09/11 02:51:40;;;;;;;12.43;9.63;;;;;;;16.06;65.14;100786.13;1766555;81;21663;-81
2021/09/11 02:54:07;;;;;;;13.85;10.28;;;;;;;16.09;65.17;100789.94;1766382;81;21484;-81
2021/09/11 02:56:33;;;;;;;13.03;10.58;;;;;;;16.11;65.23;100791.19;1765973;81;21048;-81
2021/09/11 02:58:59;;;;;;;12.63;9.38;;;;;;;16.13;65.27;100788.03;1766165;81;21483;-81
2021/09/11 03:01:26;;;;;;;13.18;9.85;;;;;;;16.15;65.31;100783.16;1766188;81;21471;-81
2021/09/11 03:03:52;;;;;;;19.02;11.15;;;;;;;16.18;65.34;100783.50;1765370;81;21333;-81
2021/09/11 03:06:18;;;;;;;18.98;12.00;;;;;;;16.21;65.39;100782.09;1766038;81;21623;-81
2021/09/11 03:08:45;;;;;;;10.55;9.45;;;;;;;16.23;65.39;100783.73;1766290;81;21607;-81
2021/09/11 03:11:14;;;;;;;9.95;8.80;;;;;;;16.24;65.44;100788.50;1765799;81;21503;-81
2021/09/11 03:13:42;;;;;;;11.53;9.73;;;;;;;16.27;65.47;100786.23;1766109;81;21032;-81
2021/09/11 03:16:10;;;;;;;12.00;10.68;;;;;;;16.28;65.52;100786.63;1765864;81;21666;-81
2021/09/11 03:18:37;;;;;;;17.37;11.05;;;;;;;16.29;65.55;100790.48;1766126;81;21644;-81
2021/09/11 03:21:03;;;;;;;;;;;;;;;16.31;65.61;100793.04;1768270;81;21090;-81
2021/09/11 03:23:29;;;;;;;12.80;9.98;;;;;;;16.33;66.05;100792.08;1765968;81;20133;-81
2021/09/11 03:25:55;;;;;;;12.07;10.38;;;;;;;16.34;65.67;100791.62;1765674;81;21064;-81
2021/09/11 03:28:22;;;;;;;11.90;10.48;;;;;;;16.35;65.73;100794.63;1765957;81;21586;-81
2021/09/11 03:30:48;;;;;;;15.78;11.00;;;;;;;16.38;65.76;100794.06;1765627;81;21413;-81
2021/09/11 03:33:14;;;;;;;14.45;11.73;;;;;;;16.40;65.79;100792.25;1765694;79;21508;-81
2021/09/11 03:35:41;;;;;;;13.55;10.93;;;;;;;16.43;65.80;100794.75;1766052;81;20976;-81
2021/09/11 03:38:07;;;;;;;19.23;11.93;;;;;;;16.45;65.85;100792.93;1761288;81;20976;-81
2021/09/11 03:40:33;;;;;;;17.48;11.12;;;;;;;16.47;65.90;100795.03;1764671;81;21072;-81
2021/09/11 03:43:00;;;;;;;16.45;12.63;;;;;;;16.52;65.96;100793.55;1766016;81;28174;-81
2021/09/11 03:45:26;;;;;;;17.15;11.05;;;;;;;16.53;65.98;100783.05;1766082;81;21342;-81
2021/09/11 03:47:53;;;;;;;12.63;10.45;;;;;;;16.57;66.00;100779.02;1765529;81;20968;-81
2021/09/11 03:50:19;;;;;;;12.90;10.15;;;;;;;16.58;66.05;100784.19;1765847;79;21083;-81
2021/09/11 03:52:46;;;;;;;15.45;10.18;;;;;;;16.61;66.11;100783.22;1775870;79;20972;-81
2021/09/11 03:55:12;;;;;;;13.55;10.10;;;;;;;16.64;66.11;100777.84;1765750;81;21526;-81
2021/09/11 03:57:40;;;;;;;13.03;10.90;;;;;;;16.64;66.14;100783.07;1766392;81;21082;-81
2021/09/11 04:00:07;;;;;;;19.77;11.50;;;;;;;16.66;66.19;100782.13;1730206;82;21057;-81
2021/09/11 04:02:34;;;;;;;13.75;10.03;;;;;;;16.69;66.23;100780.71;1730315;81;21025;-81
2021/09/11 04:05:07;;;;;;;12.13;10.30;;;;;;;16.72;66.25;100783.20;1719596;82;21095;-81
2021/09/11 04:07:33;;;;;;;;;;;;;;;16.72;66.29;100780.59;1703380;84;20996;-81
2021/09/11 04:09:59;;;;;;;11.08;9.18;;;;;;;16.74;66.71;100780.08;1690666;82;20117;-81
2021/09/11 04:12:26;;;;;;;14.38;9.60;;;;;;;16.74;66.38;100781.38;1730027;82;21036;-81
2021/09/11 04:14:52;;;;;;;13.25;10.28;;;;;;;16.74;66.39;100778.78;1729848;82;21016;-81
2021/09/11 04:17:18;;;;;;;15.03;9.35;;;;;;;16.75;66.42;100780.93;1730033;82;21044;-81
2021/09/11 04:19:45;;;;;;;12.65;10.20;;;;;;;16.75;66.49;100775.25;1727949;82;20920;-81
2021/09/11 04:22:11;;;;;;;10.90;9.78;;;;;;;16.77;66.54;100775.19;1729954;82;21051;-81
2021/09/11 04:24:39;;;;;;;12.23;9.65;;;;;;;16.79;66.57;100773.38;1729788;82;21043;-80
2021/09/11 04:27:06;;;;;;;12.82;9.73;;;;;;;16.81;66.60;100768.48;1728892;81;21107;-81
2021/09/11 04:29:32;;;;;;;12.03;10.32;;;;;;;16.82;66.61;100774.11;1729935;82;21326;-81
2021/09/11 04:31:58;;;;;;;11.88;10.23;;;;;;;16.82;66.63;100773.25;1729746;82;20959;-81
2021/09/11 04:34:25;;;;;;;15.15;10.63;;;;;;;16.83;66.70;100773.65;1730257;82;21043;-81
2021/09/11 04:36:51;;;;;;;12.15;10.78;;;;;;;16.84;66.74;100771.44;1730115;82;21103;-81
2021/09/11 04:39:17;;;;;;;13.13;11.75;;;;;;;16.86;66.76;100772.22;1719736;81;21047;-82
2021/09/11 04:41:43;;;;;;;12.28;10.50;;;;;;;16.87;66.81;100777.84;1738096;81;21019;-82
2021/09/11 04:44:10;;;;;;;11.57;9.93;;;;;;;16.88;66.87;100773.02;1739335;81;21091;-82
2021/09/11 04:46:37;;;;;;;13.85;10.85;;;;;;;16.91;66.89;100774.66;1734956;81;21059;-82
2021/09/11 04:49:03;;;;;;;13.50;11.00;;;;;;;16.92;66.92;100771.98;1744601;81;21035;-82
2021/09/11 04:51:33;;;;;;;15.43;12.40;;;;;;;16.94;66.95;100780.61;1766444;80;21041;-82
2021/09/11 04:54:00;;;;;;;15.18;12.03;;;;;;;16.96;67.00;100779.24;1766477;80;21072;-82
2021/09/11 04:56:26;;;;;;;13.70;12.43;;;;;;;16.98;67.05;100785.26;1775938;80;21123;-82
2021/09/11 04:58:54;;;;;;;16.73;11.65;;;;;;;17.01;67.08;100783.83;1752037;80;21089;-82
2021/09/11 05:01:20;;;;;;;16.77;11.40;;;;;;;17.03;67.11;100789.84;1754060;80;21036;-82
2021/09/11 05:03:47;;;;;;;13.55;11.38;;;;;;;17.05;67.17;100787.57;1749235;80;21039;-82
2021/09/11 05:06:13;;;;;;;14.07;11.05;;;;;;;17.08;67.22;100790.06;1759346;80;21068;-82
2021/09/11 05:08:40;;;;;;;16.67;11.33;;;;;;;17.13;67.27;100789.87;1767115;80;21110;-81
2021/09/11 05:11:07;;;;;;;16.77;12.68;;;;;;;17.16;67.31;100789.27;1757649;80;21091;-81
2021/09/11 05:13:34;;;;;;;15.60;11.28;;;;;;;17.22;67.34;100788.16;1774418;80;20999;-81
2021/09/11 05:16:00;;;;;;;13.72;11.22;;;;;;;17.27;67.38;100790.59;1770253;80;21092;-81
2021/09/11 05:18:32;;;;;;;16.07;11.73;;;;;;;17.34;67.43;100803.35;1786033;80;21087;-81
2021/09/11 05:21:07;;;;;;;17.98;11.75;;;;;;;17.40;67.47;100803.56;1788961;80;21020;-82
2021/09/11 05:23:42;;;;;;;15.48;12.30;;;;;;;17.48;67.54;100797.10;1763769;80;21114;-82
2021/09/11 05:26:08;;;;;;;16.77;12.35;;;;;;;17.58;67.62;100798.03;1767621;80;21092;-82
2021/09/11 05:28:34;;;;;;;17.48;12.65;;;;;;;17.69;67.67;100801.89;1779263;80;21029;-82
2021/09/11 05:31:01;;;;;;;20.73;13.60;;;;;;;17.80;67.71;100798.82;1773445;80;21056;-82
2021/09/11 05:33:27;;;;;;;14.13;12.63;;;;;;;17.92;67.74;100800.91;1763252;80;21785;-82
2021/09/11 05:35:54;;;;;;;14.15;12.78;;;;;;;18.05;67.78;100793.37;1736292;80;432210;-82
2021/09/11 05:38:20;;;;;;;16.67;13.20;;;;;;;18.17;67.82;100794.15;1748965;81;21086;-82
2021/09/11 05:40:47;;;;;;;16.45;12.68;;;;;;;18.29;67.84;100791.41;1687106;82;21083;-82
2021/09/11 05:43:13;;;;;;;20.17;12.63;;;;;;;18.43;67.90;100783.78;1720671;82;21100;-82
2021/09/11 05:45:39;;;;;;;15.90;14.15;;;;;;;18.55;67.93;100779.30;1743043;81;20997;-82
2021/09/11 05:48:07;;;;;;;19.80;15.15;;;;;;;18.69;67.98;100786.55;1712868;82;21052;-82
2021/09/11 05:50:33;;;;;;;15.48;13.88;;;;;;;18.82;67.98;100787.17;1753093;79;21074;-82
2021/09/11 05:53:00;;;;;;;16.35;14.47;;;;;;;18.95;68.00;100783.52;1687920;82;21076;-82
2021/09/11 05:55:26;;;;;;;23.10;14.35;;;;;;;19.10;67.98;100781.93;1691788;82;21073;-82
2021/09/11 05:57:53;;;;;;;21.00;14.25;;;;;;;19.21;67.97;100778.79;1680917;82;21112;-82
2021/09/11 06:00:19;;;;;;;15.48;13.78;;;;;;;19.33;67.98;100779.47;1677637;83;21077;-82
2021/09/11 06:02:45;;;;;;;16.90;14.28;;;;;;;19.46;68.04;100787.11;1694396;82;21045;-80
2021/09/11 06:05:12;;;;;;;17.30;13.72;;;;;;;19.59;68.03;100780.36;1690239;82;21093;-80
2021/09/11 06:07:40;;;;;;;15.43;13.83;;;;;;;19.74;68.05;100780.05;1684804;82;21044;-80
2021/09/11 06:10:07;;;;;;;21.10;14.23;;;;;;;19.89;68.06;100784.94;1691824;82;21430;-82
2021/09/11 06:12:33;;;;;;;19.48;13.80;;;;;;;20.02;68.02;100788.16;1679634;82;21338;-81
2021/09/11 06:15:00;;;;;;;16.07;12.95;;;;;;;20.13;68.01;100793.70;1696421;83;20989;-81
2021/09/11 06:17:27;;;;;;;16.35;13.62;;;;;;;20.24;67.98;100786.56;1691844;84;21085;-81
2021/09/11 06:19:54;;;;;;;18.55;13.53;;;;;;;20.34;67.96;100789.05;1688403;83;21077;-81
2021/09/11 06:22:20;;;;;;;15.05;13.45;;;;;;;20.40;67.93;100782.19;1704660;82;21083;-81
2021/09/11 06:24:46;;;;;;;19.80;14.35;;;;;;;20.49;67.96;100787.41;1724567;82;21092;-81
2021/09/11 06:27:13;;;;;;;18.80;13.70;;;;;;;20.57;67.96;100784.37;1717462;82;21333;-81
2021/09/11 06:29:39;;;;;;;18.30;13.32;;;;;;;20.65;67.96;100781.70;1704617;82;21052;-78
2021/09/11 06:32:07;;;;;;;23.80;13.70;;;;;;;20.77;67.96;100786.28;1674208;82;21496;-78
2021/09/11 06:34:34;;;;;;;18.05;13.00;;;;;;;20.88;67.96;100784.81;1682882;82;21041;-78
2021/09/11 06:37:00;;;;;;;18.05;14.43;;;;;;;20.98;67.95;100782.89;1677706;82;21057;-80
2021/09/11 06:39:29;;;;;;;17.00;14.28;;;;;;;21.07;67.95;100783.69;1684018;84;21568;-79
2021/09/11 06:41:56;;;;;;;20.75;13.90;;;;;;;21.21;67.98;100778.98;1689019;82;21048;-79
2021/09/11 06:44:22;;;;;;;20.05;14.15;;;;;;;21.38;67.93;100780.15;1683732;82;21076;-79
2021/09/11 06:46:48;;;;;;;18.60;13.45;;;;;;;21.65;68.05;100782.10;1676702;83;21045;-79
2021/09/11 06:49:15;;;;;;;20.15;13.58;;;;;;;22.02;68.00;100794.77;1684582;82;21166;-79
2021/09/11 06:51:41;;;;;;;15.50;13.00;;;;;;;22.30;67.90;100795.71;1683835;82;20989;-79
2021/09/11 06:54:08;;;;;;;17.85;12.88;;;;;;;22.48;67.79;100794.54;1688636;82;20950;-79
2021/09/11 06:56:34;;;;;;;15.65;12.93;;;;;;;22.60;67.67;100793.77;1682409;83;20926;-79
2021/09/11 06:59:00;;;;;;;16.02;12.63;;;;;;;22.78;67.77;100797.03;1679062;82;20961;-79
2021/09/11 07:01:27;;;;;;;15.50;13.35;;;;;;;23.05;67.71;100794.41;1683201;82;20969;-79
2021/09/11 07:03:53;;;;;;;13.40;12.10;;;;;;;23.25;67.62;100796.59;1689707;82;20926;-80
2021/09/11 07:06:20;;;;;;;15.70;11.15;;;;;;;23.39;67.53;100807.56;1676181;82;20966;-79
2021/09/11 07:08:46;;;;;;;15.65;11.28;;;;;;;23.49;67.44;100821.81;1678636;82;20969;-79
2021/09/11 07:11:14;;;;;;;14.28;10.98;;;;;;;23.57;67.35;100817.38;1684699;82;21467;-79
2021/09/11 07:13:41;;;;;;;12.25;10.88;;;;;;;23.61;67.31;100816.23;1679100;83;21008;-79
2021/09/11 07:16:08;;;;;;;12.85;11.28;;;;;;;23.66;67.26;100826.00;1681693;82;25691;-79
2021/09/11 07:18:35;;;;;;;13.48;12.25;;;;;;;23.68;67.13;100826.75;1721189;82;21096;-79
2021/09/11 07:21:03;;;;;;;13.80;11.55;;;;;;;23.62;67.03;100824.05;1715432;82;20953;-79
2021/09/11 07:23:29;;;;;;;18.50;11.95;;;;;;;23.63;67.12;100827.05;1714000;82;20925;-79
2021/09/11 07:25:55;;;;;;;13.25;11.63;;;;;;;23.67;67.05;100829.86;1721690;82;20996;-80
2021/09/11 07:28:22;;;;;;;18.48;12.58;;;;;;;23.73;67.02;100830.77;1709925;82;20917;-80
2021/09/11 07:30:51;;;;;;;12.30;11.12;;;;;;;23.75;66.89;100824.91;1685305;82;20917;-81
2021/09/11 07:33:18;;;;;;;18.87;11.50;;;;;;;23.79;66.81;100825.55;1685274;82;20993;-81
2021/09/11 07:35:44;;;;;;;15.50;12.13;;;;;;;23.92;66.95;100821.57;1683055;82;21073;-81
2021/09/11 07:38:11;;;;;;;11.28;10.13;;;;;;;24.32;66.91;100828.95;1680178;83;21040;-80
2021/09/11 07:40:38;;;;;;;12.85;10.50;;;;;;;24.53;66.67;100818.64;1676233;82;21053;-80
2021/09/11 07:43:05;;;;;;;12.50;11.20;;;;;;;24.86;66.46;100820.20;1681883;82;21120;-80
2021/09/11 07:45:31;;;;;;;;;;;;;;;24.99;66.13;100814.86;1683201;84;21360;-80
2021/09/11 07:47:57;;;;;;;14.15;11.73;;;;;;;25.25;65.83;100847.36;1712017;82;20210;-81
2021/09/11 07:50:28;;;;;;;13.55;12.05;;;;;;;25.46;66.03;100848.42;1716949;82;21131;-81
2021/09/11 07:52:53;;;;;;;14.45;12.68;;;;;;;25.71;65.92;100852.73;1707215;82;21636;-82
2021/09/11 07:55:19;;;;;;;12.75;11.38;;;;;;;25.91;65.73;100853.39;1715780;82;21406;-82
2021/09/11 07:57:46;;;;;;;14.70;13.18;;;;;;;25.92;65.54;100831.23;1708853;82;20992;-81
2021/09/11 08:00:13;;;;;;;15.45;10.82;;;;;;;26.08;65.45;100849.42;1722393;82;20889;-83
2021/09/11 08:02:40;;;;;;;11.28;9.98;;;;;;;26.20;65.44;100848.48;1713762;81;20965;-83
2021/09/11 08:05:07;;;;;;;10.82;9.90;;;;;;;26.31;65.35;100844.55;1713953;82;21767;-83
2021/09/11 08:07:33;;;;;;;9.50;8.70;;;;;;;26.44;65.27;100847.56;1708678;82;20929;-83
2021/09/11 08:09:59;;;;;;;11.25;10.20;;;;;;;26.62;65.23;100854.04;1719249;82;20957;-83
2021/09/11 08:15:08;;;;;;;10.87;9.77;;;;;;;26.82;64.83;100842.69;1825734;77;22730;-83
2021/09/11 08:17:35;;;;;;;11.08;9.30;;;;;;;26.90;64.49;100846.05;1807319;79;20933;-83
2021/09/11 08:20:02;;;;;;;10.90;8.98;;;;;;;26.81;64.22;100845.45;1796936;78;22347;-83
2021/09/11 08:22:28;;;;;;;10.32;8.70;;;;;;;26.65;64.21;100848.48;1806818;78;21012;-83
2021/09/11 08:24:56;;;;;;;10.88;9.08;;;;;;;26.54;64.01;100863.08;1806337;78;20933;-80
2021/09/11 08:27:24;;;;;;;12.03;9.20;;;;;;;26.37;63.85;100875.04;1801316;78;21033;-82
2021/09/11 08:29:51;;;;;;;9.23;8.38;;;;;;;26.19;63.69;100865.34;1772084;79;21027;-82
2021/09/11 08:32:18;;;;;;;10.00;7.78;;;;;;;26.03;63.63;100870.13;1768704;79;21325;-80
2021/09/11 08:34:44;;;;;;;7.80;6.97;;;;;;;25.93;63.52;100880.63;1727226;80;20926;-78
2021/09/11 08:37:11;;;;;;;12.65;6.33;;;;;;;25.96;63.43;100886.17;1771683;80;20898;-83
2021/09/11 08:39:37;;;;;;;6.03;4.65;;;;;;;25.97;63.24;100889.19;1751064;81;20914;-79
2021/09/11 08:42:03;;;;;;;10.82;4.47;;;;;;;26.00;63.17;100881.81;1768774;80;20921;-82
2021/09/11 08:44:31;;;;;;;;;;;;;;;25.73;62.47;100884.77;1744010;80;20899;-79
2021/09/11 08:46:57;;;;;;;5.47;3.65;;;;;;;25.43;61.88;100896.79;1777286;80;20456;-79
2021/09/11 08:49:24;;;;;;;9.13;3.60;;;;;;;25.20;62.31;100901.96;1750348;80;20913;-80
2021/09/11 08:51:52;;;;;;;4.00;3.17;;;;;;;24.94;62.15;100913.09;1784771;79;20921;-79
2021/09/11 08:54:21;;;;;;;3.25;2.95;;;;;;;24.67;61.93;100909.73;1766956;80;20945;-79
2021/09/11 08:56:50;;;;;;;3.70;2.92;;;;;;;24.43;61.75;100920.73;1735650;81;20918;-80
2021/09/11 08:59:20;;;;;;;8.48;3.35;;;;;;;24.13;61.62;100915.70;1741568;81;20934;-80
2021/09/11 09:02:08;;;;;;;4.90;3.22;;;;;;;23.81;61.46;100914.77;1771457;79;20965;-80
2021/09/11 09:04:48;;;;;;;4.47;3.62;;;;;;;23.54;61.42;100908.18;1718007;83;20963;-79
2021/09/11 09:07:40;;;;;;;4.20;3.10;;;;;;;23.25;61.37;100893.38;1740379;81;20874;-79
2021/09/11 09:10:13;;;;;;;7.40;4.22;;;;;;;23.03;61.39;100903.98;1700187;83;20902;-80
2021/09/11 09:12:44;;;;;;;3.75;3.45;;;;;;;22.78;61.29;100897.23;1729787;81;20870;-79
2021/09/11 09:15:14;;;;;;;7.12;3.67;;;;;;;22.60;61.28;100903.63;1727039;81;20880;-82
2021/09/11 09:17:47;;;;;;;8.63;3.77;;;;;;;22.48;61.36;100899.11;1708212;82;21427;-80
2021/09/11 09:20:24;;;;;;;4.12;3.80;;;;;;;22.39;61.33;100899.20;1749037;81;20910;-79
2021/09/11 09:23:07;;;;;;;4.65;4.15;;;;;;;22.28;61.35;100899.02;1736444;81;21746;-80
2021/09/11 09:25:38;;;;;;;5.53;4.08;;;;;;;22.17;61.38;100895.71;1732831;81;20878;-84
2021/09/11 09:28:13;;;;;;;5.97;3.92;;;;;;;22.12;61.43;100893.82;1708251;83;20963;-81
2021/09/11 09:30:49;;;;;;;8.23;3.85;;;;;;;22.07;61.50;100890.14;1711779;82;20910;-81
2021/09/11 09:33:25;;;;;;;6.55;3.83;;;;;;;22.05;61.61;100903.02;1727643;81;20930;-81
2021/09/11 09:35:54;;;;;;;6.80;4.17;;;;;;;22.05;61.70;100903.02;1732848;82;20882;-81
2021/09/11 09:38:20;;;;;;;7.97;4.80;;;;;;;22.07;61.80;100908.58;1685075;83;20922;-80
2021/09/11 09:40:50;;;;;;;5.33;4.47;;;;;;;22.09;61.86;100902.75;1739593;82;20904;-80
2021/09/11 09:43:40;;;;;;;7.53;4.65;;;;;;;22.12;61.89;100900.41;1728396;80;20911;-80
2021/09/11 09:46:16;;;;;;;5.78;5.25;;;;;;;22.12;62.01;100899.09;1721483;82;20936;-80
2021/09/11 09:48:45;;;;;;;5.58;5.00;;;;;;;22.20;62.14;100904.75;1742779;81;20906;-80
2021/09/11 09:51:18;;;;;;;6.95;4.35;;;;;;;22.29;62.20;100905.52;1763558;80;21383;-80
2021/09/11 09:53:47;;;;;;;5.33;4.83;;;;;;;22.37;62.27;100899.28;1745701;80;21359;-80
2021/09/11 09:56:13;;;;;;;5.53;4.95;;;;;;;22.48;62.36;100899.11;1727165;80;20938;-81
2021/09/11 09:58:40;;;;;;;5.12;4.42;;;;;;;22.57;62.43;100897.23;1763750;80;20877;-81
2021/09/11 10:01:07;;;;;;;6.50;4.70;;;;;;;22.64;62.56;100882.27;1771696;80;21375;-81
2021/09/11 10:03:34;;;;;;;4.95;4.42;;;;;;;22.74;62.58;100891.30;1748938;80;20918;-80
2021/09/11 10:06:06;;;;;;;5.50;5.00;;;;;;;22.76;62.52;100888.09;1766104;80;21383;-80
2021/09/11 10:08:37;;;;;;;5.42;4.90;;;;;;;22.75;62.59;100890.83;1750977;80;20886;-80
2021/09/11 10:11:10;;;;;;;6.10;5.42;;;;;;;22.70;62.60;100892.89;1713737;81;21273;-80
2021/09/11 10:13:39;;;;;;;5.60;5.10;;;;;;;22.66;62.68;100893.56;1727577;81;22519;-80
2021/09/11 10:16:09;;;;;;;4.97;4.58;;;;;;;22.62;62.71;100891.20;1703839;82;20943;-80
2021/09/11 10:18:41;;;;;;;5.12;4.72;;;;;;;22.56;62.85;100902.97;1701179;83;21492;-80
2021/09/11 10:21:37;;;;;;;6.70;4.67;;;;;;;22.52;62.85;100900.14;1617861;81;10000441;-81
2021/09/11 10:24:17;;;;;;;4.90;3.80;;;;;;;22.46;62.91;100900.05;1731054;81;20902;-81
2021/09/11 10:26:50;;;;;;;6.15;4.67;;;;;;;22.39;63.01;100897.41;1734307;82;21270;-80
2021/09/11 10:29:43;;;;;;;4.75;4.35;;;;;;;22.35;63.03;100898.56;1728832;82;20895;-80
2021/09/11 10:32:26;;;;;;;6.17;4.12;;;;;;;22.28;63.05;100905.14;1739994;81;20917;-80
2021/09/11 10:35:03;;;;;;;4.33;3.92;;;;;;;22.21;63.12;100898.54;1698629;83;20961;-80
2021/09/11 10:37:54;;;;;;;4.00;3.60;;;;;;;22.10;63.13;100898.33;1734710;81;21000;-80
2021/09/11 10:40:41;;;;;;;7.25;4.00;;;;;;;22.00;63.16;100906.36;1695069;84;21452;-80
2021/09/11 10:43:14;;;;;;;4.58;4.03;;;;;;;21.91;63.19;100892.42;1676182;85;20922;-80
2021/09/11 10:45:58;;;;;;;5.15;4.03;;;;;;;21.75;63.21;100897.29;1689227;83;20930;-80
2021/09/11 10:48:39;;;;;;;4.78;4.37;;;;;;;21.68;63.38;100884.10;1691061;83;20985;-80
2021/09/11 10:51:28;;;;;;;4.83;4.30;;;;;;;21.62;63.39;100888.41;1680052;83;21041;-80
2021/09/11 10:54:14;;;;;;;5.47;4.92;;;;;;;21.55;63.43;100880.95;1676524;83;20926;-80
2021/09/11 10:56:49;;;;;;;6.08;4.55;;;;;;;21.47;63.57;100884.02;1675820;85;20902;-80
2021/09/11 10:59:21;;;;;;;5.53;4.70;;;;;;;21.41;63.61;100877.31;1684626;84;21762;-81
2021/09/11 11:02:07;;;;;;;5.10;4.70;;;;;;;21.39;63.75;100879.19;1668766;85;21490;-81
2021/09/11 11:04:50;;;;;;;7.58;5.70;;;;;;;21.37;63.79;100885.00;1685471;83;20924;-78
2021/09/11 11:07:22;;;;;;;6.67;6.00;;;;;;;21.33;63.82;100883.48;1684110;83;21456;-77
2021/09/11 11:09:58;;;;;;;7.40;6.58;;;;;;;21.29;63.92;100877.19;1673520;83;20902;-78
2021/09/11 11:12:34;;;;;;;6.62;6.03;;;;;;;21.26;63.99;100874.73;1724295;82;21016;-77
2021/09/11 11:15:08;;;;;;;7.35;6.75;;;;;;;21.23;64.07;100868.33;1751155;79;20914;-76
2021/09/11 11:17:46;;;;;;;7.78;7.08;;;;;;;21.22;64.21;100868.80;1722107;81;21686;-76
2021/09/11 11:20:14;;;;;;;7.87;7.17;;;;;;;21.23;64.26;100861.28;1754715;80;28031;-76
2021/09/11 11:22:43;;;;;;;7.05;6.45;;;;;;;21.26;64.32;100858.95;1761966;80;21468;-76
2021/09/11 11:25:16;;;;;;;7.00;6.30;;;;;;;21.28;64.40;100858.39;1725409;81;20946;-76
2021/09/11 11:27:44;;;;;;;10.08;6.28;;;;;;;21.28;64.41;100855.77;1669094;81;21395;-76